Aérodrome :
LOGIN :

S'inscrire | Disclaimer

   EN    FR    IT 

 










Légende :    VFR   VFR Marginal   IFR   IFR Intensif   IFR Très Intensif
Visi : 
Plafond : 
>= 8 km
>= 3000ft
5 à 8 km
1000 à 3000 ft
1500m à 5 km
500 à 1000 ft
800 à 1500m
200 à 500 ft
< 800m
< 200 ft
Symboles :   Orages  Brouillard  Fortes neiges  Fortes précipitations  Vent > 20 kt
SIGMETs :   Divers  Orages  Givrage  Turbulence  Onde Orograph.  Cendres Volcan.







- Altitude de l'aérodrome : 55 ft
- Code IATA : DSA
- Voir les cartes d'approche


EGCN - Robin Hood Doncaster Sheffield

DERNIER METAR :
  • 141720Z 18011KT CAVOK 12/08 Q1018

METARs EXPIRÉS :
  • 141650Z 18012KT CAVOK 12/08 Q1018
  • 141620Z 19015KT CAVOK 12/08 Q1018
  • 141550Z 19014KT CAVOK 13/08 Q1018
  • 141520Z 19013KT CAVOK 14/08 Q1019
  • 141450Z 20014KT CAVOK 13/08 Q1019

TAF TAF EGCN
Valide du 14 à 12h jusqu'au 15 à 12h UTC


141057Z 1412/1512 20012KT 9999 FEW030
PROB40
TEMPO 1412/1416 21016G26KT
TEMPO 1418/1512 6000 BKN012
PROB30
TEMPO 1502/1511 BKN008
Pas de NOTAMs connus pour ce terrain.
1 SIGMET publié pour la FIR London (EGTT) :
 
Onde orographique forte
EGTT SIGMET 05 VALID 141600/141930 EGRR
EGTT LONDON FIR SEV MTW FCST WI N5220 W00530 - N5500 W00530 - N5500 W00100 - N5500 E00132 - N5141 W00228 - N5201 W00606 - N5220 W00530 FL020/320 STNR NC=



MET'MAP, la Météo Aéronautique d'un coup d'oeil ! - Copyright ORBIFLY Décembre 2007 - Disclaimer

ORBIFLY MET'MAP TEAM :

Programmation & Développement : Alexandra Zaïnal
Conception & Développement : Baudouin d'Aumeries
Co-Programmation & Développement : Marc-Olivier Méhu
Soutien technique & logistique : Manuel Goepfert

Contact : metmap@orbifly.com




SOURCES & CREDITS :

   NOAA